Time;durP1;ratioP1;P1;durP2;ratioP2;P2;SDS_P1;SDS_P2;PMS_P1;PMS_P2;Temp;Humidity;BMP_temperature;BMP_pressure;BME280_temperature;BME280_humidity;BME280_pressure;Samples;Min_cycle;Max_cycle;Signal;HPM_P1;HPM_P2
2022/02/09 00:02:40;;;;;;;;;;;6.60;99.90;;;;;;5054561;28;20023;-66
2022/02/09 00:05:26;;;;;;;;;;;6.60;99.90;;;;;;5065453;28;19995;-66
2022/02/09 00:10:23;;;;;;;;;;;6.70;99.90;;;;;;5068778;28;19931;-66
2022/02/09 00:15:33;;;;;;;;;;;6.60;99.90;;;;;;5070705;28;20392;-66
2022/02/09 00:32:13;;;;;;;;;;;6.60;99.90;;;;;;5067723;28;20371;-65
2022/02/09 00:34:57;;;;;;;;;;;6.60;99.90;;;;;;5060435;28;19986;-65
2022/02/09 00:42:41;;;;;;;;;;;6.60;99.90;;;;;;5067023;28;19930;-65
2022/02/09 01:56:25;;;;;;;;;;;6.60;99.90;;;;;;5068383;28;19928;-66
2022/02/09 01:58:52;;;;;;;;;;;6.50;99.90;;;;;;5065643;28;19931;-66
2022/02/09 02:01:20;;;;;;;;;;;6.60;99.90;;;;;;5068722;28;20400;-67
2022/02/09 02:03:47;;;;;;;;;;;6.60;99.90;;;;;;5068072;28;20315;-65
2022/02/09 02:06:15;;;;;;;;;;;6.50;99.90;;;;;;5068182;28;19924;-66
2022/02/09 02:08:44;;;;;;;;;;;6.50;99.90;;;;;;5067472;28;19947;-66
2022/02/09 02:11:21;;;;;;;;;;;6.50;99.90;;;;;;5068320;28;20006;-65
2022/02/09 02:16:27;;;;;;;;;;;6.60;99.90;;;;;;5069842;28;20019;-66
2022/02/09 02:19:03;;;;;;;;;;;6.50;99.90;;;;;;5057976;28;19927;-65
2022/02/09 02:24:54;;;;;;;;;;;6.60;99.90;;;;;;5067271;28;19982;-66
2022/02/09 02:59:24;;;;;;;;;;;6.40;99.90;;;;;;5073445;28;19947;-67
2022/02/09 03:13:05;;;;;;;;;;;6.40;99.90;;;;;;5071952;28;20011;-66
2022/02/09 03:20:54;;;;;;;;;;;6.30;99.90;;;;;;5070103;28;20294;-67
2022/02/09 03:42:15;;;;;;;;;;;6.40;99.90;;;;;;5070458;28;19931;-66
2022/02/09 03:47:49;;;;;;;;;;;6.40;99.90;;;;;;5068217;28;19930;-67
2022/02/09 03:58:06;;;;;;;;;;;6.30;99.90;;;;;;5069915;28;19970;-66
2022/02/09 04:00:37;;;;;;;;;;;6.40;99.90;;;;;;5064785;28;20367;-66
2022/02/09 04:03:11;;;;;;;;;;;6.40;99.90;;;;;;5070367;28;19947;-66
2022/02/09 04:05:38;;;;;;;;;;;6.30;99.90;;;;;;5068970;28;19931;-66
2022/02/09 04:08:09;;;;;;;;;;;6.30;99.90;;;;;;5069337;28;19924;-66
2022/02/09 04:10:42;;;;;;;;;;;6.30;99.90;;;;;;5068559;28;19928;-66
2022/02/09 04:13:20;;;;;;;;;;;6.30;99.90;;;;;;5068548;28;20014;-65
2022/02/09 04:16:16;;;;;;;;;;;6.30;99.90;;;;;;5069620;28;19924;-66
2022/02/09 04:51:29;;;;;;;;;;;6.40;99.90;;;;;;5064539;28;19928;-67
2022/02/09 04:59:23;;;;;;;;;;;6.40;99.90;;;;;;5069684;28;19924;-67
2022/02/09 05:02:15;;;;;;;;;;;6.30;99.90;;;;;;5068736;28;20402;-67
2022/02/09 05:24:23;;;;;;;;;;;6.40;99.90;;;;;;4988184;28;20008;-67
2022/02/09 05:29:26;;;;;;;;;;;6.40;99.90;;;;;;4980250;28;19933;-67
2022/02/09 05:31:53;;;;;;;;;;;6.40;99.90;;;;;;4975514;28;19926;-67
2022/02/09 05:34:20;;;;;;;;;;;6.50;99.90;;;;;;4981575;28;19932;-66
2022/02/09 05:36:47;;;;;;;;;;;6.50;99.90;;;;;;4984492;28;19969;-67
2022/02/09 05:39:14;;;;;;;;;;;6.50;99.90;;;;;;4984622;28;19925;-67
2022/02/09 05:41:44;;;;;;;;;;;6.50;99.90;;;;;;4984862;28;19928;-67
2022/02/09 05:44:13;;;;;;;;;;;6.50;99.90;;;;;;4982591;28;19974;-67
2022/02/09 05:49:34;;;;;;;;;;;6.50;99.90;;;;;;4998236;28;20294;-66
2022/02/09 05:52:17;;;;;;;;;;;6.50;99.90;;;;;;5050454;28;19966;-67
2022/02/09 05:55:09;;;;;;;;;;;6.60;99.90;;;;;;5068724;28;25132;-67
2022/02/09 05:57:50;;;;;;;;;;;6.50;99.90;;;;;;5049310;28;20259;-65
2022/02/09 06:00:18;;;;;;;;;;;6.50;99.90;;;;;;5057951;28;20271;-67
2022/02/09 06:02:45;;;;;;;;;;;6.50;99.90;;;;;;5064885;28;19972;-67
2022/02/09 06:05:13;;;;;;;;;;;6.50;99.90;;;;;;5063488;28;19939;-67
2022/02/09 06:07:41;;;;;;;;;;;6.50;99.90;;;;;;5071802;28;20015;-67
2022/02/09 06:10:15;;;;;;;;;;;6.50;99.90;;;;;;5072818;28;19927;-67
2022/02/09 06:13:06;;;;;;;;;;;6.50;99.90;;;;;;5071801;28;20395;-67
2022/02/09 06:16:07;;;;;;;;;;;6.60;99.90;;;;;;5072158;28;19924;-67
2022/02/09 06:21:25;;;;;;;;;;;6.60;99.90;;;;;;5064935;28;19959;-67
2022/02/09 06:23:52;;;;;;;;;;;6.50;99.90;;;;;;5071116;28;25069;-67
2022/02/09 06:26:19;;;;;;;;;;;6.50;99.90;;;;;;5070456;28;25118;-67
2022/02/09 06:28:47;;;;;;;;;;;6.50;99.90;;;;;;5070112;28;19920;-67
2022/02/09 06:31:15;;;;;;;;;;;6.60;99.90;;;;;;5069649;28;20341;-67
2022/02/09 06:33:42;;;;;;;;;;;6.60;99.90;;;;;;5049625;28;20376;-66
2022/02/09 06:36:10;;;;;;;;;;;6.60;99.90;;;;;;5065321;28;25097;-67
2022/02/09 06:38:40;;;;;;;;;;;6.70;99.90;;;;;;5057975;28;19942;-67
2022/02/09 06:41:08;;;;;;;;;;;6.60;99.90;;;;;;5069155;28;19928;-67
2022/02/09 06:43:35;;;;;;;;;;;6.60;99.90;;;;;;5062207;28;19925;-66
2022/02/09 06:46:03;;;;;;;;;;;6.60;99.90;;;;;;5059501;28;19921;-65
2022/02/09 06:48:31;;;;;;;;;;;6.60;99.90;;;;;;5061633;28;20031;-66
2022/02/09 06:51:06;;;;;;;;;;;6.60;99.90;;;;;;5054159;28;19928;-66
2022/02/09 06:53:41;;;;;;;;;;;6.60;99.90;;;;;;5067241;28;19920;-66
2022/02/09 06:56:09;;;;;;;;;;;6.60;99.90;;;;;;5064224;28;20023;-65
2022/02/09 07:01:04;;;;;;;;;;;6.70;99.90;;;;;;5070040;28;19920;-65
2022/02/09 07:03:31;;;;;;;;;;;6.70;99.90;;;;;;5071097;28;19920;-66
2022/02/09 07:05:58;;;;;;;;;;;6.70;99.90;;;;;;5070746;28;19925;-66
2022/02/09 07:08:27;;;;;;;;;;;6.70;99.90;;;;;;5067813;28;25057;-66
2022/02/09 07:10:54;;;;;;;;;;;6.60;99.90;;;;;;5068200;28;25118;-66
2022/02/09 07:13:21;;;;;;;;;;;6.60;99.90;;;;;;5085831;28;19950;-65
2022/02/09 07:15:52;;;;;;;;;;;6.70;99.90;;;;;;5070617;28;20001;-68
2022/02/09 07:18:20;;;;;;;;;;;6.70;99.90;;;;;;5068021;28;19924;-68
2022/02/09 07:23:28;;;;;;;;;;;6.70;99.90;;;;;;5067729;28;20070;-67
2022/02/09 07:26:06;;;;;;;;;;;6.80;99.90;;;;;;5055629;28;19924;-68
2022/02/09 07:28:33;;;;;;;;;;;6.80;99.90;;;;;;5060659;28;19930;-67
2022/02/09 07:31:00;;;;;;;;;;;6.80;99.90;;;;;;5069820;28;24144;-68
2022/02/09 07:33:28;;;;;;;;;;;6.80;99.90;;;;;;5065565;28;19928;-69
2022/02/09 07:35:56;;;;;;;;;;;6.80;99.90;;;;;;5065486;28;20375;-65
2022/02/09 07:38:23;;;;;;;;;;;6.90;99.90;;;;;;5052564;28;19924;-67
2022/02/09 07:40:54;;;;;;;;;;;6.90;99.90;;;;;;5069843;28;25103;-68
2022/02/09 07:43:25;;;;;;;;;;;6.90;99.90;;;;;;5070675;28;19932;-68
2022/02/09 07:54:02;;;;;;;;;;;6.80;99.90;;;;;;5069569;28;20402;-67
2022/02/09 07:56:30;;;;;;;;;;;6.80;99.90;;;;;;5054143;28;19932;-68
2022/02/09 07:58:57;;;;;;;;;;;6.80;99.90;;;;;;5066020;28;20349;-68
2022/02/09 08:01:25;;;;;;;;;;;6.90;99.90;;;;;;5051907;28;19928;-68
2022/02/09 08:03:53;;;;;;;;;;;6.90;99.90;;;;;;5069239;28;19932;-68
2022/02/09 08:06:26;;;;;;;;;;;6.90;99.90;;;;;;5072382;28;24078;-68
2022/02/09 08:08:56;;;;;;;;;;;6.90;99.90;;;;;;5070394;28;19924;-68
2022/02/09 08:11:32;;;;;;;;;;;7.00;99.90;;;;;;5030669;28;19967;-66
2022/02/09 08:32:52;;;;;;;;;;;7.20;99.90;;;;;;5064886;28;19963;-67
2022/02/09 08:35:20;;;;;;;;;;;7.20;99.90;;;;;;5062558;28;19958;-68
2022/02/09 08:37:47;;;;;;;;;;;7.30;99.90;;;;;;5065238;28;20007;-67
2022/02/09 08:40:18;;;;;;;;;;;7.20;99.90;;;;;;5057429;28;20388;-67
2022/02/09 08:42:45;;;;;;;;;;;7.30;99.90;;;;;;5059036;28;19930;-68
2022/02/09 08:45:12;;;;;;;;;;;7.30;99.90;;;;;;5036199;28;19920;-68
2022/02/09 08:47:50;;;;;;;;;;;7.40;99.90;;;;;;5059867;28;19931;-67
2022/02/09 08:50:18;;;;;;;;;;;7.40;99.90;;;;;;5055290;28;19939;-67
2022/02/09 08:52:45;;;;;;;;;;;7.50;99.90;;;;;;5059500;28;20394;-68
2022/02/09 08:55:12;;;;;;;;;;;7.50;99.90;;;;;;5067970;28;20472;-67
2022/02/09 08:57:39;;;;;;;;;;;7.60;99.90;;;;;;5050816;28;19924;-66
2022/02/09 09:00:16;;;;;;;;;;;7.60;99.90;;;;;;5059124;28;19943;-67
2022/02/09 09:02:47;;;;;;;;;;;7.70;99.90;;;;;;5065352;28;25055;-67
2022/02/09 09:05:29;;;;;;;;;;;7.80;99.90;;;;;;5034074;28;19967;-66
2022/02/09 09:08:12;;;;;;;;;;;7.80;99.90;;;;;;5050561;28;19997;-67
2022/02/09 09:10:48;;;;;;;;;;;7.90;99.90;;;;;;5054709;28;19925;-67
2022/02/09 10:02:50;;;;;;;;;;;8.60;99.90;;;;;;5058666;28;19925;-66
2022/02/09 10:34:07;;;;;;;;;;;9.00;99.90;;;;;;4971836;28;20374;-66
2022/02/09 10:36:46;;;;;;;;;;;9.00;99.90;;;;;;4959883;28;19945;-68
2022/02/09 10:39:18;;;;;;;;;;;8.90;99.90;;;;;;4979956;28;20012;-67
2022/02/09 10:41:52;;;;;;;;;;;8.90;99.90;;;;;;4996622;28;20485;-67
2022/02/09 10:44:25;;;;;;;;;;;9.00;99.90;;;;;;4990218;28;20070;-67
2022/02/09 10:46:55;;;;;;;;;;;9.00;99.90;;;;;;4993739;28;25128;-67
2022/02/09 10:49:27;;;;;;;;;;;9.20;99.90;;;;;;4992975;28;25062;-68
2022/02/09 10:54:26;;;;;;;;;;;9.30;99.90;;;;;;4992538;28;20415;-67
2022/02/09 10:56:58;;;;;;;;;;;9.30;99.90;;;;;;5071190;28;19920;-72
2022/02/09 10:59:26;;;;;;;;;;;9.30;99.90;;;;;;5071628;28;20362;-68
2022/02/09 11:01:56;;;;;;;7.70;4.30;;;9.40;99.90;;;;;;5053374;28;20031;-66
2022/02/09 11:04:23;;;;;;;;;;;9.30;99.90;;;;;;5071271;28;19932;-67
2022/02/09 11:06:51;;;;;;;;;;;9.30;99.90;;;;;;5071402;28;19977;-66
2022/02/09 11:09:27;;;;;;;;;;;9.40;99.90;;;;;;5064354;28;19924;-67
2022/02/09 11:11:55;;;;;;;;;;;9.50;99.90;;;;;;5072102;28;19932;-67
2022/02/09 11:14:24;;;;;;;;;;;9.50;99.90;;;;;;5069150;28;19986;-67
2022/02/09 11:16:51;;;;;;;;;;;9.40;99.90;;;;;;5053906;28;19970;-66
2022/02/09 11:19:31;;;;;;;;;;;9.40;99.90;;;;;;5066293;28;24165;-66
2022/02/09 11:22:12;;;;;;;;;;;9.40;99.90;;;;;;5051762;28;25157;-67
2022/02/09 11:24:47;;;;;;;;;;;9.40;99.90;;;;;;5073053;28;19935;-66
2022/02/09 11:27:26;;;;;;;;;;;9.40;99.90;;;;;;5072315;28;19928;-66
2022/02/09 11:30:15;;;;;;;;;;;9.40;99.90;;;;;;5043068;28;24083;-66
2022/02/09 11:33:00;;;;;;;;;;;9.50;99.90;;;;;;5061378;28;20023;-67
2022/02/09 11:35:31;;;;;;;;;;;9.60;99.90;;;;;;5037321;28;20410;-67
2022/02/09 11:43:29;;;;;;;;;;;9.60;99.90;;;;;;5063900;28;20015;-67
2022/02/09 11:55:44;;;;;;;;;;;9.80;99.90;;;;;;5050621;28;25139;-65
2022/02/09 12:11:33;;;;;;;;;;;10.60;99.90;;;;;;5007950;28;19935;-67
2022/02/09 12:14:18;;;;;;;;;;;10.60;99.90;;;;;;5009138;28;20024;-67
2022/02/09 12:19:36;;;;;;;;;;;11.00;99.90;;;;;;4993257;28;20187;-69
2022/02/09 12:24:35;;;;;;;;;;;12.50;99.90;;;;;;5005569;28;20262;-67
2022/02/09 12:27:02;;;;;;;;;;;13.80;99.90;;;;;;5008666;28;20325;-66
2022/02/09 12:29:32;;;;;;;;;;;15.10;99.90;;;;;;5007128;28;19926;-66
2022/02/09 12:32:00;;;;;;;;;;;15.10;99.90;;;;;;5006928;28;19929;-66
2022/02/09 12:34:34;;;;;;;;;;;15.50;99.90;;;;;;5006142;28;19929;-67
2022/02/09 12:37:10;;;;;;;;;;;15.50;99.90;;;;;;5006945;28;19965;-67
2022/02/09 12:39:48;;;;;;;;;;;15.30;99.90;;;;;;5006453;28;20054;-68
2022/02/09 12:42:16;;;;;;;;;;;16.00;99.90;;;;;;5040112;28;20047;-67
2022/02/09 12:44:56;;;;;;;;;;;17.80;99.90;;;;;;5066314;28;19963;-67
2022/02/09 12:47:44;;;;;;;;;;;19.90;99.90;;;;;;5068164;28;19947;-66
2022/02/09 12:50:13;;;;;;;;;;;21.50;99.90;;;;;;5066345;28;20298;-67
2022/02/09 12:52:41;;;;;;;;;;;23.60;99.90;;;;;;5066812;28;20583;-68
2022/02/09 12:55:15;;;;;;;;;;;23.90;99.90;;;;;;5066026;28;24073;-67
2022/02/09 12:57:44;;;;;;;;;;;24.90;99.90;;;;;;5053869;28;20405;-68
2022/02/09 13:00:23;;;;;;;;;;;25.40;99.90;;;;;;5068997;28;19931;-68
2022/02/09 13:02:51;;;;;;;;;;;26.80;96.10;;;;;;5065024;28;20050;-67
2022/02/09 13:05:18;;;;;;;;;;;27.10;95.30;;;;;;5050526;28;20102;-68
2022/02/09 13:07:58;;;;;;;;;;;26.30;93.40;;;;;;5067283;28;20314;-66
2022/02/09 13:10:33;;;;;;;;;;;25.00;93.90;;;;;;5068252;28;20087;-67
2022/02/09 13:13:10;;;;;;;;;;;24.20;95.00;;;;;;5054891;28;20068;-67
2022/02/09 13:15:50;;;;;;;;;;;24.30;95.30;;;;;;5068017;28;25161;-67
2022/02/09 13:18:37;;;;;;;;;;;25.10;94.00;;;;;;5052007;28;19936;-68
2022/02/09 14:52:46;;;;;;;;;;;27.10;80.60;;;;;;4963635;28;20232;-66
2022/02/09 14:55:05;;;;;;;;;;;27.60;79.50;;;;;;4973505;28;20484;-66
2022/02/09 14:57:39;;;;;;;;;;;27.80;78.70;;;;;;5069439;28;25054;-69
2022/02/09 15:00:14;;;;;;;;;;;28.40;78.50;;;;;;5062316;28;20299;-68
2022/02/09 15:10:33;;;;;;;;;;;28.50;76.60;;;;;;5062144;28;19924;-67
2022/02/09 15:13:30;;;;;;;2.50;1.25;;;28.40;76.70;;;;;;5064369;28;20052;-67
2022/02/09 15:23:17;;;;;;;;;;;26.40;79.20;;;;;;5041932;28;20059;-68
2022/02/09 15:25:44;;;;;;;;;;;25.40;80.50;;;;;;5065850;28;19959;-67
2022/02/09 15:28:12;;;;;;;;;;;25.70;80.50;;;;;;5050044;28;20023;-67
2022/02/09 15:30:49;;;;;;;;;;;25.50;80.60;;;;;;5045304;28;19931;-68
2022/02/09 15:33:22;;;;;;;;;;;25.20;81.30;;;;;;5066640;28;19931;-67
2022/02/09 15:36:13;;;;;;;;;;;24.80;81.60;;;;;;5049449;28;20066;-68
2022/02/09 15:38:46;;;;;;;;;;;24.70;83.80;;;;;;5064357;28;19970;-68
2022/02/09 15:44:06;;;;;;;;;;;25.20;83.00;;;;;;5066149;28;19947;-66
2022/02/09 16:05:45;;;;;;;;;;;22.20;88.10;;;;;;5063741;28;19941;-67
2022/02/09 16:24:01;;;;;;;;;;;17.50;95.20;;;;;;5059022;28;19931;-67
2022/02/09 16:48:33;;;;;;;;;;;11.00;99.90;;;;;;5056624;28;20381;-65
2022/02/09 16:51:10;;;;;;;;;;;10.70;99.90;;;;;;5055408;28;19925;-65
2022/02/09 16:53:54;;;;;;;;;;;10.50;99.90;;;;;;5067721;28;19943;-68
2022/02/09 16:56:41;;;;;;;;;;;10.30;99.90;;;;;;5057786;28;19928;-66
2022/02/09 17:21:12;;;;;;;;;;;9.30;99.90;;;;;;4965879;28;19930;-66
2022/02/09 17:23:40;;;;;;;;;;;9.10;99.90;;;;;;4987451;28;20404;-67
2022/02/09 17:26:07;;;;;;;;;;;9.00;99.90;;;;;;4988195;28;19926;-66
2022/02/09 17:28:35;;;;;;;;;;;8.90;99.90;;;;;;4983881;28;20016;-67
2022/02/09 17:36:46;;;;;;;;;;;8.80;99.90;;;;;;4988464;28;20399;-67
2022/02/09 17:53:23;;;;;;;;;;;8.70;99.90;;;;;;5035251;28;19924;-68
2022/02/09 17:53:30;;;;;;;;;;;8.60;99.90;;;;;;5067586;28;19931;-67
2022/02/09 17:56:06;;;;;;;;;;;8.50;99.90;;;;;;5054423;28;20357;-67
2022/02/09 17:58:39;;;;;;;;;;;8.40;99.90;;;;;;5046744;28;20290;-67
2022/02/09 18:01:06;;;;;;;;;;;8.50;99.90;;;;;;5056480;28;19963;-66
2022/02/09 18:03:34;;;;;;;;;;;8.50;99.90;;;;;;5072991;28;19946;-66
2022/02/09 18:08:47;;;;;;;;;;;8.50;99.90;;;;;;5054658;28;19939;-66
2022/02/09 18:28:08;;;;;;;;;;;8.20;99.90;;;;;;5019151;28;19972;-66
2022/02/09 18:33:11;;;;;;;;;;;8.10;99.90;;;;;;5025429;28;20011;-66
2022/02/09 18:44:15;;;;;;;;;;;7.80;99.90;;;;;;4954345;28;20420;-66
2022/02/09 19:03:05;;;;;;;;;;;7.60;99.90;;;;;;5001978;28;19930;-65
2022/02/09 19:05:40;;;;;;;;;;;7.60;99.90;;;;;;4990886;28;19980;-66
2022/02/09 19:08:15;;;;;;;;;;;7.60;99.90;;;;;;5003821;28;20372;-68
2022/02/09 19:27:08;;;;;;;;;;;7.10;99.90;;;;;;5058659;28;20477;-67
2022/02/09 19:46:19;;;;;;;;;;;6.60;99.90;;;;;;5040965;28;20398;-67
2022/02/09 19:48:58;;;;;;;;;;;6.50;99.90;;;;;;5043890;28;19924;-66
2022/02/09 19:56:55;;;;;;;;;;;6.30;99.90;;;;;;5009655;28;19926;-66
2022/02/09 19:59:23;;;;;;;;;;;6.20;99.90;;;;;;5007711;28;20281;-67
2022/02/09 20:01:53;;;;;;;;;;;6.20;99.90;;;;;;4998401;28;19926;-67
2022/02/09 20:04:20;;;;;;;;;;;6.10;99.90;;;;;;5008519;28;19935;-67
2022/02/09 20:06:48;;;;;;;;;;;6.10;99.90;;;;;;5009939;28;20016;-68
2022/02/09 20:09:15;;;;;;;;;;;6.00;99.90;;;;;;5005261;28;19968;-66
2022/02/09 20:11:43;;;;;;;;;;;6.00;99.90;;;;;;4992359;28;19936;-67
2022/02/09 20:14:14;;;;;;;;;;;5.90;99.90;;;;;;5009672;28;20351;-67
2022/02/09 20:16:41;;;;;;;;;;;5.80;99.90;;;;;;4993610;28;19925;-67
2022/02/09 20:19:08;;;;;;;;;;;5.80;99.90;;;;;;5011017;28;19921;-67
2022/02/09 20:21:36;;;;;;;;;;;5.70;99.90;;;;;;5009297;28;20416;-66
2022/02/09 20:24:04;;;;;;;;;;;5.70;99.90;;;;;;5008077;28;19929;-66
2022/02/09 20:26:32;;;;;;;;;;;5.70;99.90;;;;;;5008136;28;19925;-66
2022/02/09 20:29:07;;;;;;;;;;;5.60;99.90;;;;;;5008126;28;20506;-67
2022/02/09 20:31:45;;;;;;;;;;;5.50;99.90;;;;;;5051074;28;19970;-67
2022/02/09 20:36:48;;;;;;;;;;;5.40;99.90;;;;;;5063612;28;19935;-66
2022/02/09 20:39:18;;;;;;;;;;;5.40;99.90;;;;;;5064251;28;19927;-66
2022/02/09 20:41:46;;;;;;;;;;;5.40;99.90;;;;;;5070613;28;19950;-66
2022/02/09 20:44:38;;;;;;;;;;;5.30;99.90;;;;;;5064494;28;19953;-66
2022/02/09 20:47:06;;;;;;;;;;;5.30;99.90;;;;;;5070214;28;20401;-67
2022/02/09 20:49:33;;;;;;;;;;;5.20;99.90;;;;;;5069941;28;20407;-67
2022/02/09 20:52:00;;;;;;;;;;;5.20;99.90;;;;;;5065340;28;19947;-67
2022/02/09 20:54:27;;;;;;;;;;;5.20;99.90;;;;;;5082612;28;19924;-67
2022/02/09 20:56:55;;;;;;;;;;;5.10;99.90;;;;;;5056681;28;19947;-67
2022/02/09 20:59:22;;;;;;;;;;;5.10;99.90;;;;;;5069916;28;20398;-67
2022/02/09 21:04:19;;;;;;;;;;;5.00;99.90;;;;;;5068646;28;20598;-66
2022/02/09 21:07:36;;;;;;;;;;;5.00;99.90;;;;;;5070980;28;19928;-67
2022/02/09 21:09:58;;;;;;;;;;;5.00;99.90;;;;;;5065086;28;20393;-66
2022/02/09 21:12:38;;;;;;;;;;;5.00;99.90;;;;;;5069392;28;19924;-67
2022/02/09 21:15:34;;;;;;;;;;;4.90;99.90;;;;;;5062363;28;19928;-67
2022/02/09 21:20:59;;;;;;;;;;;4.90;99.90;;;;;;5052307;28;20335;-67
2022/02/09 21:30:11;;;;;;;;;;;4.80;99.90;;;;;;5070678;28;19930;-67
2022/02/09 21:32:11;;;;;;;;;;;4.80;99.90;;;;;;5057329;28;19964;-67
2022/02/09 21:56:17;;;;;;;;;;;4.50;99.90;;;;;;5066733;28;20379;-65
2022/02/09 22:01:39;;;;;;;;;;;4.40;99.90;;;;;;5072781;28;20006;-68
2022/02/09 22:28:32;;;;;;;;;;;4.30;99.90;;;;;;5038277;28;19929;-68
2022/02/09 22:45:33;;;;;;;;;;;4.20;99.90;;;;;;4974746;28;19965;-68
2022/02/09 22:48:25;;;;;;;;;;;4.10;99.90;;;;;;4993070;28;19926;-67
2022/02/09 22:50:56;;;;;;;;;;;4.10;99.90;;;;;;4993126;28;20012;-67
2022/02/09 22:56:10;;;;;;;;;;;4.10;99.90;;;;;;4991363;28;19964;-67
2022/02/09 22:58:37;;;;;;;;;;;4.10;99.90;;;;;;4991859;28;19925;-68
2022/02/09 23:01:15;;;;;;;;;;;4.10;99.90;;;;;;4970059;28;19926;-68
2022/02/09 23:06:43;;;;;;;;;;;4.10;99.90;;;;;;4974126;28;19926;-67
2022/02/09 23:09:39;;;;;;;;;;;4.10;99.90;;;;;;4983151;28;19926;-67
2022/02/09 23:12:26;;;;;;;;;;;4.00;99.90;;;;;;5067527;28;19961;-67
2022/02/09 23:15:12;;;;;;;;;;;4.00;99.90;;;;;;5055207;28;19929;-67
2022/02/09 23:54:35;;;;;;;;;;;3.70;99.90;;;;;;5046564;28;19928;-68
